Latest Coastal Weather Observations for Smithton

IDT60701

Issued at 12:52 am EDT Wednesday 29 March 2017 (issued every 10 minutes, with the page automatically refreshed every 10 minutes)

About coastal observations | Map of coastal stations | Coastal observations for TAS | Marine services | Other Formats
Station Details ID: 091292 Name: SMITHTON AERODROME Lat: -40.83 Lon: 145.08 Height: 7.5 m
Data from the previous 72 hours. | See also: Recent months at Smithton
Date/Time
EDT
Temp
°C
Wind Pressure Rain since
9am
mm
Weather Cloud Vis
km
Sea
Height
m
Swell
Dir  Spd
kts
Gust
kts
hPa Trend Height
m
Period
s
Dir
29/12:30am 16.2 NW 7 9 1009.0 - 0.0 - - - - - - -
29/12:00am 15.9 NW 5 6 1009.0 - 0.0 - - - - - - -
 
Date/Time
EDT
Temp
°C
Wind Pressure Rain since
9am
mm
Weather Cloud Vis
km
Sea
Height
m
Swell
Dir  Spd
kts
Gust
kts
hPa Trend Height
m
Period
s
Dir
28/11:30pm 15.8 WNW 6 8 1009.3 - 0.0 - - - - - - -
28/11:00pm 15.7 NNW 5 6 1009.5 - 0.0 - - - - - - -
28/10:30pm 15.6 NNW 5 7 1009.7 - 0.0 - - - - - - -
28/10:00pm 15.7 NW 7 9 1010.0 - 0.0 - - - - - - -
28/09:30pm 15.5 NW 3 5 1010.0 - 0.0 - - - - - - -
28/09:00pm 15.5 WNW 6 8 1010.0 - 0.0 - - - - - - -
28/08:30pm 15.7 W 6 9 1010.0 - 0.0 - - - - - - -
28/08:00pm 16.1 WNW 6 10 1009.7 - 0.0 - - - - - - -
28/07:30pm 16.0 NW 6 8 1009.5 - 0.0 - - - - - - -
28/07:00pm 16.1 WNW 10 14 1009.5 - 0.0 - - - - - - -
28/06:30pm 17.1 WNW 8 10 1009.4 - 0.0 - - - - - - -
28/06:00pm 17.4 WNW 12 17 1009.5 - 0.0 - - - - - - -
28/05:30pm 17.5 WNW 13 18 1009.6 - 0.0 - - - - - - -
28/05:00pm 18.2 WNW 14 19 1009.3 - 0.0 - - - - - - -
28/04:30pm 18.4 W 10 14 1009.4 - 0.0 - - - - - - -
28/04:00pm 18.5 W 14 17 1009.6 - 0.0 - - - - - - -
28/03:30pm 18.4 WNW 18 25 1009.8 - 0.0 - - - - - - -
28/03:00pm 18.5 WNW 16 22 1009.8 - 0.0 - - - - - - -
28/02:30pm 18.6 W 13 17 1009.9 - 0.0 - - - - - - -
28/02:00pm 17.6 W 13 18 1010.1 - 0.0 - - - - - - -
28/01:30pm 17.3 WSW 14 24 1010.4 - 0.0 - - - - - - -
28/01:00pm 17.7 WNW 11 18 1010.7 - 0.0 - - - - - - -
28/12:30pm 16.8 WNW 16 22 1011.3 - 0.0 - - - - - - -
28/12:00pm 18.0 WNW 12 18 1011.2 - 0.0 - - - - - - -
28/11:30am 17.1 WNW 14 19 1011.3 - 0.0 - - - - - - -
28/11:13am 16.6 WNW 18 31 1011.3 - 0.0 - - - - - - -
28/11:08am 17.7 WNW 17 23 1011.0 - 0.0 - - - - - - -
28/11:00am 17.6 W 9 12 1011.0 - 0.0 - - - - - - -
28/10:30am 18.1 NW 17 21 1011.1 - 0.0 - - - - - - -
28/10:00am 17.1 WNW 11 15 1011.1 - 0.0 - - - - - - -
28/09:30am 16.0 W 6 8 1011.0 - 0.0 - - - - - - -
28/09:00am 15.9 WNW 6 10 1010.7 - 6.8 - - - - - - -
28/08:30am 15.3 WNW 7 10 1010.5 - 6.8 - - - - - - -
28/08:00am 14.4 W 7 10 1010.4 - 6.8 - - - - - - -
28/07:30am 14.1 W 6 8 1010.3 - 6.8 - - - - - - -
28/07:00am 13.4 WNW 7 9 1010.1 - 6.8 - - - - - - -
28/06:30am 14.7 W 9 12 1009.9 - 6.8 - - - - - - -
28/06:00am 14.3 W 7 11 1009.6 - 6.8 - - - - - - -
28/05:30am 14.0 W 8 11 1009.4 - 6.8 - - - - - - -
28/05:00am 12.4 WNW 7 10 1009.2 - 6.8 - - - - - - -
28/04:30am 12.2 WNW 8 10 1009.0 - 6.8 - - - - - - -
28/04:00am 12.3 W 8 9 1008.9 - 6.8 - - - - - - -
28/03:30am 12.4 WNW 7 9 1008.9 - 6.8 - - - - - - -
28/03:00am 13.6 WNW 4 5 1009.0 - 6.8 - - - - - - -
28/02:30am 13.6 W 4 6 1009.2 - 6.8 - - - - - - -
28/02:00am 13.6 W 8 9 1009.4 - 6.8 - - - - - - -
28/01:30am 14.0 WNW 9 14 1009.3 - 6.8 - - - - - - -
28/01:00am 14.1 W 9 11 1009.2 - 6.8 - - - - - - -
28/12:30am 14.2 W 10 13 1009.0 - 6.8 - - - - - - -
28/12:00am 14.0 W 9 11 1009.2 - 6.8 - - - - - - -
 
Date/Time
EDT
Temp
°C
Wind Pressure Rain since
9am
mm
Weather Cloud Vis
km
Sea
Height
m
Swell
Dir  Spd
kts
Gust
kts
hPa Trend Height
m
Period
s
Dir
27/11:30pm 14.3 W 10 13 1009.2 - 6.8 - - - - - - -
27/11:00pm 14.5 W 9 13 1009.1 - 6.8 - - - - - - -
27/10:30pm 15.0 W 10 12 1009.0 - 6.6 - - - - - - -
27/10:00pm 15.5 W 14 19 1008.9 - 6.6 - - - - - - -
27/09:30pm 15.8 W 15 22 1008.6 - 6.6 - - - - - - -
27/09:00pm 15.9 W 15 21 1008.2 - 6.6 - - - - - - -
27/08:30pm 16.1 W 16 22 1007.7 - 6.6 - - - - - - -
27/08:00pm 16.1 W 15 21 1007.4 - 6.6 - - - - - - -
27/07:30pm 16.6 W 19 26 1006.9 - 6.6 - - - - - - -
27/07:00pm 17.1 W 19 26 1006.5 - 6.6 - - - - - - -
27/06:30pm 17.6 WNW 20 27 1006.0 - 6.6 - - - - - - -
27/06:00pm 17.6 WNW 17 24 1005.7 - 6.6 - - - - - - -
27/05:30pm 18.2 WNW 18 26 1005.6 - 6.6 - - - - - - -
27/05:04pm 18.2 W 17 27 1005.5 - 6.6 - - - - - - -
27/05:00pm 18.8 W 19 27 1005.5 - 6.6 - - - - - - -
27/04:43pm 18.2 W 17 33 1005.2 - 6.6 - - - - - - -
27/04:30pm 17.3 W 15 21 1005.3 - 6.6 - - - - - - -
27/04:00pm 16.1 WNW 12 16 1005.8 - 6.6 - - - - - - -
27/03:30pm 14.9 W 11 15 1005.7 - 6.6 - - - - - - -
27/03:00pm 14.8 W 14 20 1005.2 - 6.6 - - - - - - -
27/02:30pm 14.9 W 14 19 1004.8 - 5.4 - - - - - - -
27/02:00pm 15.5 WNW 25 37 1005.3 - 4.6 - - - - - - -
27/01:52pm 16.5 WNW 19 33 1005.2 - 4.0 - - - - - - -
27/01:30pm 17.7 W 19 28 1004.4 - 3.8 - - - - - - -
27/01:00pm 18.6 W 22 33 1004.3 - 3.6 - - - - - - -
27/12:46pm 19.0 W 25 35 1003.8 - 3.6 - - - - - - -
27/12:37pm 20.2 W 30 35 1003.4 - 3.4 - - - - - - -
27/12:33pm 21.2 WNW 18 29 1002.9 - 3.4 - - - - - - -
27/12:30pm 21.3 NNW 12 19 1002.8 - 3.4 - - - - - - -
27/12:00pm 21.3 NE 11 17 1001.8 - 3.4 - - - - - - -
27/11:30am 20.9 ENE 13 17 1001.8 - 3.4 - - - - - - -
27/11:00am 20.6 ENE 11 15 1001.6 - 3.4 - - - - - - -
27/10:30am 19.8 E 14 20 1001.1 - 3.4 - - - - - - -
27/10:00am 19.0 E 15 20 1001.7 - 3.0 - - - - - - -
27/09:35am 19.6 E 15 25 1003.6 - 0.0 - - - - - - -
27/09:30am 19.5 E 18 25 1001.8 - 0.0 - - - - - - -
27/09:00am 19.2 E 19 26 1001.2 - 0.0 - - - - - - -
27/08:30am 19.1 ENE 19 25 1002.4 - 0.0 - - - - - - -
27/08:00am 19.1 ENE 17 24 1003.3 - 0.0 - - - - - - -
27/07:41am 18.9 ENE 16 26 1003.4 - 0.0 - - - - - - -
27/07:30am 18.8 ENE 18 26 1003.8 - 0.0 - - - - - - -
27/07:00am 18.8 ENE 16 25 1004.2 - 0.0 - - - - - - -
27/06:55am 18.9 ENE 15 25 1004.3 - 0.0 - - - - - - -
27/06:30am 18.8 ENE 16 23 1004.9 - 0.0 - - - - - - -
27/06:00am 18.7 ENE 13 19 1005.6 - 0.0 - - - - - - -
27/05:30am 18.6 ENE 14 22 1005.7 - 0.0 - - - - - - -
27/05:00am 18.8 ENE 16 22 1006.0 - 0.0 - - - - - - -
27/04:30am 18.9 ENE 17 23 1006.4 - 0.0 - - - - - - -
27/04:00am 18.5 ENE 17 23 1006.7 - 0.0 - - - - - - -
27/03:30am 18.2 ENE 15 22 1007.3 - 0.0 - - - - - - -
27/03:00am 18.1 ENE 17 24 1007.6 - 0.0 - - - - - - -
27/02:30am 18.2 ENE 15 21 1008.2 - 0.0 - - - - - - -
27/02:00am 18.3 ENE 15 23 1008.7 - 0.0 - - - - - - -
27/01:30am 18.2 ENE 13 18 1009.7 - 0.0 - - - - - - -
27/01:00am 18.2 ENE 14 20 1010.3 - 0.0 - - - - - - -
27/12:30am 18.0 ENE 13 19 1011.1 - 0.0 - - - - - - -
27/12:00am 18.0 NE 14 19 1011.5 - 0.0 - - - - - - -
 
Date/Time
EDT
Temp
°C
Wind Pressure Rain since
9am
mm
Weather Cloud Vis
km
Sea
Height
m
Swell
Dir  Spd
kts
Gust
kts
hPa Trend Height
m
Period
s
Dir
26/11:30pm 18.1 NE 14 22 1012.0 - 0.0 - - - - - - -
26/11:00pm 18.1 NE 15 21 1012.3 - 0.0 - - - - - - -
26/10:30pm 18.1 NE 15 19 1012.6 - 0.0 - - - - - - -
26/10:00pm 18.1 NE 12 17 1012.5 - 0.0 - - - - - - -
26/09:30pm 17.3 ENE 9 11 1012.4 - 0.0 - - - - - - -
26/09:00pm 17.5 NE 9 12 1012.6 - 0.0 - - - - - - -
26/08:30pm 17.6 NNE 8 11 1012.8 - 0.0 - - - - - - -
26/08:00pm 18.0 NNE 8 11 1012.7 - 0.0 - - - - - - -
26/07:30pm 18.1 NNE 8 10 1012.8 - 0.0 - - - - - - -
26/07:00pm 18.4 NNE 7 9 1012.7 - 0.0 - - - - - - -
26/06:30pm 19.2 NNE 9 11 1013.0 - 0.0 - - - - - - -
26/06:00pm 19.7 N 9 11 1013.0 - 0.0 - - - - - - -
26/05:30pm 20.1 NNE 8 11 1013.1 - 0.0 - - - - - - -
26/05:00pm 20.6 N 9 11 1013.2 - 0.0 - - - - - - -
26/04:30pm 21.0 N 10 13 1013.3 - 0.0 - - - - - - -
26/04:00pm 21.6 NNE 8 11 1013.1 - 0.0 - - - - - - -
26/03:30pm 21.6 N 8 11 1013.1 - 0.0 - - - - - - -
26/03:00pm 21.3 N 9 11 1013.7 - 0.0 - - - - - - -
26/02:30pm 21.9 N 9 11 1013.8 - 0.0 - - - - - - -
26/02:00pm 21.7 N 9 11 1014.0 - 0.0 - - - - - - -
26/01:30pm 21.4 NNE 9 11 1014.3 - 0.0 - - - - - - -
26/01:00pm 22.0 NNE 8 10 1014.8 - 0.0 - - - - - - -
26/12:30pm 21.5 NNE 7 9 1015.2 - 0.0 - - - - - - -
26/12:00pm 20.8 SSE 4 6 1015.4 - 0.0 - - - - - - -
26/11:30am 21.6 SSE 3 5 1015.5 - 0.0 - - - - - - -
26/11:00am 19.1 SSE 3 5 1015.6 - 0.0 - - - - - - -
26/10:30am 18.6 SSE 5 7 1015.8 - 0.0 - - - - - - -
26/10:00am 17.5 SE 5 6 1015.7 - 0.0 - - - - - - -
26/09:30am 15.9 E 6 8 1015.7 - 0.0 - - - - - - -
26/09:00am 14.7 E 4 4 1015.3 - 1.8 - - - - - - -
26/08:30am 12.0 E 4 4 1015.2 - 1.8 - - - - - - -
26/08:00am 10.1 E 1 3 1014.8 - 1.8 - - - - - - -
26/07:30am 10.7 E 1 3 1014.5 - 1.8 - - - - - - -
26/07:00am 10.7 E 5 6 1014.4 - 1.8 - - - - - - -
26/06:30am 10.4 E 5 5 1014.1 - 1.8 - - - - - - -
26/06:00am 11.6 E 3 4 1013.8 - 1.8 - - - - - - -
26/05:30am 11.9 E 3 5 1013.8 - 1.8 - - - - - - -
26/05:00am 12.4 E 4 6 1013.2 - 1.8 - - - - - - -
26/04:30am 13.9 E 5 7 1013.2 - 1.6 - - - - - - -
26/04:00am 13.1 E 2 5 1013.4 - 1.6 - - - - - - -
26/03:30am 12.1 CALM 0 0 1013.6 - 1.6 - - - - - - -
26/03:00am 10.9 E 4 5 1014.0 - 1.6 - - - - - - -
26/02:30am 11.4 E 4 5 1014.1 - 1.6 - - - - - - -
26/02:00am 11.4 E 4 5 1014.0 - 1.6 - - - - - - -
26/01:30am 12.3 E 3 4 1013.8 - 1.6 - - - - - - -
26/01:00am 12.7 E 3 3 1013.9 - 1.6 - - - - - - -

Other Formats:

Comma delimited format used in spreadsheet applications
http://www.bom.gov.au/fwo/IDT60701/IDT60701.94953.axf

JavaScript Object Notation format (JSON) in row-major order
http://www.bom.gov.au/fwo/IDT60701/IDT60701.94953.json